createdAt,value
2023-01-18T00:01:07.168Z,11.47
2023-01-18T00:03:35.837Z,10.00
2023-01-18T00:06:04.577Z,10.17
2023-01-18T00:08:33.564Z,8.60
2023-01-18T00:11:12.298Z,13.20
2023-01-18T00:13:39.809Z,13.63
2023-01-18T00:16:18.369Z,10.13
2023-01-18T00:18:52.122Z,10.03
2023-01-18T00:21:19.346Z,10.40
2023-01-18T00:23:46.228Z,8.87
2023-01-18T00:26:14.305Z,10.03
2023-01-18T00:28:41.555Z,11.77
2023-01-18T00:31:20.544Z,14.70
2023-01-18T00:33:49.830Z,8.60
2023-01-18T00:36:18.136Z,8.30
2023-01-18T00:38:52.024Z,7.93
2023-01-18T00:41:19.858Z,12.90
2023-01-18T00:43:47.270Z,4.37
2023-01-18T00:46:19.857Z,10.97
2023-01-18T00:48:48.382Z,10.03
2023-01-18T00:51:18.458Z,6.20
2023-01-18T00:53:45.991Z,8.80
2023-01-18T00:56:18.075Z,7.50
2023-01-18T00:58:45.600Z,11.10
2023-01-18T01:01:13.893Z,6.63
2023-01-18T01:03:59.836Z,14.10
2023-01-18T01:06:44.581Z,7.97
2023-01-18T01:09:16.796Z,9.97
2023-01-18T01:12:04.403Z,11.33
2023-01-18T01:14:52.358Z,12.03
2023-01-18T01:17:38.044Z,10.87
2023-01-18T01:20:23.970Z,14.30
2023-01-18T01:23:09.198Z,13.90
2023-01-18T01:25:55.721Z,11.07
2023-01-18T01:28:22.826Z,13.47
2023-01-18T01:30:49.887Z,8.73
2023-01-18T01:33:17.983Z,11.17
2023-01-18T01:35:44.931Z,14.03
2023-01-18T01:38:11.841Z,10.67
2023-01-18T01:40:38.880Z,11.13
2023-01-18T01:43:12.771Z,11.23
2023-01-18T01:45:40.028Z,7.07
2023-01-18T01:48:10.018Z,11.57
2023-01-18T01:50:39.931Z,11.33
2023-01-18T01:53:09.235Z,9.83
2023-01-18T01:55:39.481Z,8.50
2023-01-18T01:58:32.862Z,8.73
2023-01-18T02:00:59.995Z,7.63
2023-01-18T02:03:27.000Z,13.03
2023-01-18T02:06:02.155Z,7.43
2023-01-18T02:08:29.349Z,11.60
2023-01-18T02:10:56.208Z,11.47
2023-01-18T02:13:25.778Z,9.33
2023-01-18T02:16:01.659Z,12.40
2023-01-18T02:18:37.816Z,9.43
2023-01-18T02:21:19.140Z,12.40
2023-01-18T02:24:16.509Z,9.27
2023-01-18T02:27:00.969Z,16.23
2023-01-18T02:29:56.115Z,12.63
2023-01-18T02:32:30.129Z,9.83
2023-01-18T02:35:11.445Z,7.43
2023-01-18T02:37:42.640Z,10.33
2023-01-18T02:40:12.442Z,8.53
2023-01-18T02:43:00.934Z,9.67
2023-01-18T02:46:07.140Z,7.30
2023-01-18T02:48:38.785Z,9.90
2023-01-18T02:51:06.417Z,11.53
2023-01-18T02:53:40.232Z,14.80
2023-01-18T02:56:13.066Z,11.83
2023-01-18T02:58:39.914Z,12.60
2023-01-18T03:01:38.173Z,8.00
2023-01-18T03:04:13.148Z,8.70
2023-01-18T03:06:44.879Z,8.20
2023-01-18T03:09:18.430Z,9.67
2023-01-18T03:12:03.429Z,11.13
2023-01-18T03:14:39.697Z,13.57
2023-01-18T03:17:11.460Z,9.77
2023-01-18T03:20:10.016Z,9.43
2023-01-18T03:23:01.569Z,15.50
2023-01-18T03:25:35.194Z,10.83
2023-01-18T03:28:35.239Z,11.37
2023-01-18T03:31:26.673Z,17.37
2023-01-18T03:34:01.178Z,10.83
2023-01-18T03:36:33.213Z,12.10
2023-01-18T03:39:04.986Z,10.87
2023-01-18T03:41:36.987Z,13.80
2023-01-18T03:44:10.483Z,13.00
2023-01-18T03:46:39.742Z,17.37
2023-01-18T03:49:07.575Z,11.33
2023-01-18T03:52:01.267Z,10.63
2023-01-18T03:54:40.103Z,12.47
2023-01-18T03:57:14.894Z,9.83
2023-01-18T03:59:41.861Z,6.90
2023-01-18T04:02:09.973Z,16.27
2023-01-18T04:04:36.971Z,9.80
2023-01-18T04:07:04.155Z,16.37
2023-01-18T04:09:31.581Z,12.67
2023-01-18T04:11:58.880Z,12.43
2023-01-18T04:14:25.812Z,10.53
2023-01-18T04:16:52.734Z,9.60
2023-01-18T04:19:19.723Z,19.17
2023-01-18T04:21:46.592Z,18.27
2023-01-18T04:24:13.687Z,9.20
2023-01-18T04:26:40.733Z,13.63
2023-01-18T04:29:09.206Z,14.63
2023-01-18T04:31:36.236Z,10.00
2023-01-18T04:34:03.386Z,8.60
2023-01-18T04:36:30.326Z,12.67
2023-01-18T04:38:57.408Z,11.87
2023-01-18T04:41:24.491Z,8.57
2023-01-18T04:43:51.322Z,12.07
2023-01-18T04:46:18.211Z,11.50
2023-01-18T04:48:48.850Z,12.40
2023-01-18T04:51:15.743Z,11.30
2023-01-18T04:53:42.923Z,11.80
2023-01-18T04:56:10.954Z,13.93
2023-01-18T04:58:38.669Z,13.60
2023-01-18T05:01:08.493Z,18.90
2023-01-18T05:03:38.330Z,17.93
2023-01-18T05:06:07.297Z,28.10
2023-01-18T05:08:34.917Z,18.13
2023-01-18T05:11:07.271Z,8.63
2023-01-18T05:13:34.385Z,17.33
2023-01-18T05:16:03.901Z,14.40
2023-01-18T05:18:32.379Z,12.97
2023-01-18T05:20:59.394Z,11.03
2023-01-18T05:23:26.265Z,13.47
2023-01-18T05:25:58.013Z,11.83
2023-01-18T05:28:27.210Z,14.23
2023-01-18T05:30:55.158Z,9.50
2023-01-18T05:33:23.142Z,11.60
2023-01-18T05:35:51.702Z,17.93
2023-01-18T05:38:19.541Z,13.37
2023-01-18T05:40:50.288Z,16.13
2023-01-18T05:43:17.312Z,14.13
2023-01-18T05:45:44.504Z,12.83
2023-01-18T05:48:12.094Z,11.73
2023-01-18T05:50:46.037Z,9.87
2023-01-18T05:53:15.459Z,11.40
2023-01-18T05:55:42.320Z,14.93
2023-01-18T05:58:09.653Z,14.40
2023-01-18T06:00:36.647Z,14.83
2023-01-18T06:03:03.603Z,14.93
2023-01-18T06:05:30.656Z,17.77
2023-01-18T06:07:57.639Z,15.30
2023-01-18T06:10:24.525Z,15.77
2023-01-18T06:12:51.463Z,15.30
2023-01-18T06:15:18.636Z,11.67
2023-01-18T06:17:47.000Z,19.43
2023-01-18T06:20:14.376Z,17.53
2023-01-18T06:22:41.491Z,13.23
2023-01-18T06:25:10.130Z,16.73
2023-01-18T06:27:39.042Z,11.23
2023-01-18T06:30:07.122Z,13.60
2023-01-18T06:32:34.428Z,9.83
2023-01-18T06:35:01.394Z,15.70
2023-01-18T06:37:30.368Z,15.40
2023-01-18T06:39:57.434Z,16.07
2023-01-18T06:42:24.439Z,12.73
2023-01-18T06:44:51.873Z,14.03
2023-01-18T06:47:20.102Z,13.20
2023-01-18T06:49:50.150Z,14.93
2023-01-18T06:52:18.151Z,14.23
2023-01-18T06:54:45.058Z,17.43
2023-01-18T06:57:12.407Z,17.07
2023-01-18T06:59:40.044Z,16.87
2023-01-18T07:02:07.431Z,15.30
2023-01-18T07:04:38.081Z,11.40
2023-01-18T07:07:05.242Z,16.13
2023-01-18T07:09:32.177Z,20.83
2023-01-18T07:11:59.937Z,12.30
2023-01-18T07:14:26.938Z,16.17
2023-01-18T07:16:53.950Z,14.20
2023-01-18T07:19:20.962Z,16.47
2023-01-18T07:21:48.314Z,15.00
2023-01-18T07:24:15.352Z,19.60
2023-01-18T07:26:42.429Z,16.07
2023-01-18T07:29:09.344Z,12.33
2023-01-18T07:31:38.308Z,22.43
2023-01-18T07:34:05.276Z,21.13
2023-01-18T07:36:32.204Z,20.87
2023-01-18T07:39:01.291Z,15.43
2023-01-18T07:41:30.143Z,19.53
2023-01-18T07:43:58.876Z,14.63
2023-01-18T07:46:26.327Z,16.27
2023-01-18T07:48:53.771Z,16.43
2023-01-18T07:51:24.671Z,15.13
2023-01-18T07:53:55.336Z,11.70
2023-01-18T07:56:26.073Z,14.33
2023-01-18T07:58:53.755Z,14.77
2023-01-18T08:01:22.649Z,11.73
2023-01-18T08:03:50.331Z,11.97
2023-01-18T08:06:24.817Z,18.17
2023-01-18T08:08:52.470Z,11.83
2023-01-18T08:11:19.791Z,15.20
2023-01-18T08:13:49.348Z,16.70
2023-01-18T08:16:16.649Z,17.37
2023-01-18T08:18:45.615Z,13.40
2023-01-18T08:21:13.708Z,16.90
2023-01-18T08:23:41.412Z,11.17
2023-01-18T08:26:09.522Z,17.10
2023-01-18T08:28:37.033Z,17.93
2023-01-18T08:31:17.398Z,9.47
2023-01-18T14:52:30.841Z,20.23
2023-01-18T14:54:58.037Z,21.33
2023-01-18T14:57:25.010Z,20.10
2023-01-18T14:59:57.249Z,25.33
2023-01-18T15:02:29.430Z,21.13
2023-01-18T15:05:17.672Z,23.87
2023-01-18T15:07:55.197Z,21.90
2023-01-18T15:10:24.247Z,22.23
2023-01-18T15:12:55.261Z,31.30
2023-01-18T15:15:31.013Z,30.03
2023-01-18T15:18:06.472Z,30.10
2023-01-18T15:20:33.931Z,21.50
2023-01-18T15:23:01.222Z,28.17
2023-01-18T15:25:32.081Z,24.50
2023-01-18T15:28:14.947Z,25.43
2023-01-18T15:30:52.981Z,27.67
2023-01-18T15:33:21.839Z,27.43
2023-01-18T15:35:53.262Z,31.37
2023-01-18T15:38:20.561Z,23.70
2023-01-18T15:41:02.498Z,34.07
2023-01-18T15:43:42.421Z,32.80
2023-01-18T15:46:12.887Z,29.60
2023-01-18T15:48:46.870Z,36.17
2023-01-18T15:51:13.833Z,35.37
2023-01-18T15:53:52.562Z,30.60
2023-01-18T15:56:25.378Z,26.33
2023-01-18T15:58:55.912Z,33.73
2023-01-18T16:01:28.159Z,31.20
2023-01-18T16:04:22.822Z,34.90
2023-01-18T16:06:49.861Z,40.87
2023-01-18T16:09:23.410Z,39.10
2023-01-18T16:11:53.692Z,40.07
2023-01-18T16:14:31.328Z,57.90
2023-01-18T16:17:04.777Z,46.13
2023-01-18T16:19:34.966Z,36.33
2023-01-18T16:22:04.487Z,43.27
2023-01-18T16:24:34.012Z,37.30
2023-01-18T16:27:11.063Z,48.07
2023-01-18T16:29:43.905Z,28.60
2023-01-18T16:32:17.691Z,33.53
2023-01-18T16:34:44.613Z,36.07
2023-01-18T16:37:11.525Z,32.20
2023-01-18T16:39:39.893Z,40.10
2023-01-18T16:42:09.184Z,35.63
2023-01-18T16:44:37.968Z,35.27
2023-01-18T16:47:05.024Z,42.70
2023-01-18T16:49:32.186Z,33.80
2023-01-18T16:51:59.094Z,42.40
2023-01-18T16:54:25.930Z,45.30
2023-01-18T16:56:52.794Z,34.17
2023-01-18T16:59:24.745Z,32.07
2023-01-18T17:01:51.738Z,34.60
2023-01-18T17:04:18.867Z,36.80
2023-01-18T17:06:45.937Z,38.30
2023-01-18T17:09:27.124Z,41.13
2023-01-18T17:11:55.310Z,41.20
2023-01-18T17:14:22.457Z,36.63
2023-01-18T17:16:49.637Z,36.23
2023-01-18T17:19:21.543Z,44.33
2023-01-18T17:21:50.349Z,41.57
2023-01-18T17:24:20.592Z,37.80
2023-01-18T17:26:48.077Z,51.40
2023-01-18T17:29:17.980Z,43.17
2023-01-18T17:31:52.405Z,40.80
2023-01-18T17:34:29.054Z,42.83
2023-01-18T17:36:58.552Z,40.70
2023-01-18T17:39:37.444Z,42.67
2023-01-18T17:45:35.303Z,46.20
2023-01-18T17:48:02.329Z,51.43
2023-01-18T17:50:29.253Z,40.17
2023-01-18T17:52:56.737Z,34.73
2023-01-18T17:55:27.490Z,43.53
2023-01-18T17:57:57.601Z,38.10
2023-01-18T18:00:25.803Z,44.37
2023-01-18T18:02:54.386Z,40.93
2023-01-18T18:05:21.462Z,42.23
2023-01-18T18:07:49.720Z,32.83
2023-01-18T18:10:17.188Z,45.43
2023-01-18T18:12:44.338Z,38.83
2023-01-18T18:15:11.862Z,36.57
2023-01-18T18:17:38.775Z,44.37
2023-01-18T18:20:07.284Z,48.17
2023-01-18T18:22:34.212Z,39.20
2023-01-18T18:25:01.063Z,45.53
2023-01-18T18:27:44.457Z,36.00
2023-01-18T18:30:13.027Z,38.70
2023-01-18T18:32:40.045Z,42.37
2023-01-18T18:35:23.015Z,38.40
2023-01-18T18:37:52.255Z,40.43
2023-01-18T18:40:19.364Z,48.03
2023-01-18T18:42:56.506Z,36.83
2023-01-18T18:45:27.983Z,38.83
2023-01-18T18:47:55.411Z,47.20
2023-01-18T18:50:22.438Z,41.60
2023-01-18T18:52:49.607Z,43.47
2023-01-18T18:55:16.932Z,37.50
2023-01-18T18:57:43.913Z,37.30
2023-01-18T19:00:11.479Z,39.13
2023-01-18T19:02:38.405Z,40.10
2023-01-18T19:05:06.708Z,40.13
2023-01-18T19:07:37.269Z,41.07
2023-01-18T19:10:06.645Z,29.63
2023-01-18T19:12:33.826Z,39.70
2023-01-18T19:15:01.080Z,30.73
2023-01-18T19:17:31.354Z,38.27
2023-01-18T19:19:59.184Z,29.83
2023-01-18T19:22:26.191Z,44.47
2023-01-18T19:24:53.185Z,39.87
2023-01-18T19:27:21.814Z,44.50
2023-01-18T19:29:48.753Z,40.43
2023-01-18T19:32:16.027Z,33.90
2023-01-18T19:34:42.881Z,31.80
2023-01-18T19:37:09.790Z,34.20
2023-01-18T19:39:36.691Z,36.20
2023-01-18T19:42:03.713Z,36.13
2023-01-18T19:44:30.631Z,28.00
2023-01-18T19:46:57.665Z,39.20
2023-01-18T19:49:25.895Z,25.17
2023-01-18T19:51:54.692Z,23.83
2023-01-18T19:54:22.075Z,31.23
2023-01-18T19:56:49.664Z,28.67
2023-01-18T19:59:16.835Z,22.13
2023-01-18T20:01:44.794Z,26.87
2023-01-18T20:04:13.240Z,30.43
2023-01-18T20:06:43.440Z,30.17
2023-01-18T20:09:19.550Z,30.87
2023-01-18T20:11:47.862Z,27.50
2023-01-18T20:14:15.311Z,37.13
2023-01-18T20:16:45.673Z,26.73
2023-01-18T20:19:14.537Z,30.33
2023-01-18T20:21:41.418Z,28.33
2023-01-18T20:24:09.439Z,28.20
2023-01-18T20:26:40.021Z,26.57
2023-01-18T20:29:08.463Z,30.27
2023-01-18T20:31:37.437Z,25.70
2023-01-18T20:34:05.468Z,23.87
2023-01-18T20:36:35.049Z,23.60
2023-01-18T20:39:03.535Z,25.57
2023-01-18T20:41:30.804Z,21.67
2023-01-18T20:43:57.761Z,22.70
2023-01-18T20:46:24.660Z,20.57
2023-01-18T20:48:51.567Z,20.23
2023-01-18T20:51:18.583Z,22.00
2023-01-18T20:53:45.528Z,28.03
2023-01-18T20:56:27.952Z,23.50
2023-01-18T20:58:56.037Z,21.77
2023-01-18T21:01:23.063Z,29.50
2023-01-18T21:03:54.883Z,26.73
2023-01-18T21:06:22.332Z,20.57
2023-01-18T21:08:52.553Z,22.03
2023-01-18T21:11:22.998Z,24.93
2023-01-18T21:13:50.430Z,27.17
2023-01-18T21:16:17.795Z,18.70
2023-01-18T21:18:44.859Z,19.50
2023-01-18T21:21:12.968Z,22.37
2023-01-18T21:23:40.371Z,22.10
2023-01-18T21:26:10.030Z,25.97
2023-01-18T21:28:37.352Z,20.37
2023-01-18T21:31:05.235Z,19.40
2023-01-18T21:33:33.179Z,23.40
2023-01-18T21:36:08.666Z,28.60
2023-01-18T21:38:37.301Z,27.43
2023-01-18T21:41:23.227Z,28.70
2023-01-18T21:44:11.368Z,23.17
2023-01-18T21:46:38.809Z,23.23
2023-01-18T21:49:06.788Z,21.67
2023-01-18T21:51:52.743Z,26.87
2023-01-18T21:54:22.164Z,25.70
2023-01-18T21:56:51.081Z,33.60
2023-01-18T21:59:18.125Z,24.17
2023-01-18T22:01:47.144Z,23.40
2023-01-18T22:04:34.531Z,25.53
2023-01-18T22:07:01.946Z,25.90
2023-01-18T22:09:29.993Z,28.57
2023-01-18T22:11:57.628Z,29.03
2023-01-18T22:14:25.766Z,26.17
2023-01-18T22:16:53.262Z,26.00
2023-01-18T22:19:20.437Z,21.63
2023-01-18T22:21:48.367Z,32.20
2023-01-18T22:24:16.648Z,26.67
2023-01-18T22:26:44.854Z,25.60
2023-01-18T22:29:12.644Z,24.80
2023-01-18T22:31:40.131Z,24.90
2023-01-18T22:34:07.830Z,27.07
2023-01-18T22:36:34.796Z,22.53
2023-01-18T22:39:01.697Z,27.03
2023-01-18T22:41:29.214Z,23.33
2023-01-18T22:43:56.586Z,28.77
2023-01-18T22:46:24.298Z,25.77
2023-01-18T22:48:52.001Z,29.23
2023-01-18T22:51:21.915Z,25.87
2023-01-18T22:53:49.943Z,23.13
2023-01-18T22:56:22.993Z,26.83
2023-01-18T22:58:50.714Z,22.30
2023-01-18T23:01:17.739Z,22.47
2023-01-18T23:03:45.499Z,18.27
2023-01-18T23:06:12.895Z,24.43
2023-01-18T23:08:43.654Z,20.70
2023-01-18T23:11:16.942Z,21.53
2023-01-18T23:14:05.620Z,25.53
2023-01-18T23:16:51.913Z,22.20
2023-01-18T23:19:19.129Z,22.87
2023-01-18T23:21:46.256Z,19.53
2023-01-18T23:24:13.477Z,21.83
2023-01-18T23:26:40.500Z,24.43
2023-01-18T23:29:07.396Z,35.77
2023-01-18T23:31:34.579Z,24.33
2023-01-18T23:34:01.595Z,27.67
2023-01-18T23:36:28.481Z,19.47
2023-01-18T23:39:14.104Z,21.50
2023-01-18T23:41:59.438Z,25.93
2023-01-18T23:44:44.942Z,23.00
2023-01-18T23:47:30.365Z,21.47
2023-01-18T23:50:15.722Z,28.17
2023-01-18T23:53:01.474Z,22.97
2023-01-18T23:55:28.392Z,27.83
2023-01-18T23:57:55.292Z,23.23
